Time;durP1;ratioP1;P1;durP2;ratioP2;P2;SDS_P1;SDS_P2;PMS_P1;PMS_P2;Temp;Humidity;BMP_temperature;BMP_pressure;BME280_temperature;BME280_humidity;BME280_pressure;Samples;Min_cycle;Max_cycle;Signal;HPM_P1;HPM_P2
2022/01/24 00:02:08;;;;;;;11.52;6.25;;;;;;;13.24;44.16;103213.09;5053055;28;20470;-63
2022/01/24 00:04:33;;;;;;;12.82;5.20;;;;;;;13.22;44.51;103215.03;5053011;28;20027;-63
2022/01/24 00:07:02;;;;;;;11.75;5.35;;;;;;;13.21;43.83;103212.41;5052870;28;20108;-63
2022/01/24 00:09:27;;;;;;;12.88;5.80;;;;;;;13.18;43.63;103208.06;5060467;28;20162;-63
2022/01/24 00:27:20;;;;;;;11.13;5.18;;;;;;;12.99;44.44;103199.28;5061732;28;20059;-63
2022/01/24 00:29:46;;;;;;;12.90;5.95;;;;;;;12.97;44.38;103194.94;5064306;28;20021;-64
2022/01/24 00:32:11;;;;;;;9.43;4.95;;;;;;;12.96;43.80;103190.50;5034981;28;20108;-62
2022/01/24 00:34:37;;;;;;;11.73;5.65;;;;;;;12.96;43.99;103201.25;5062637;28;20021;-63
2022/01/24 00:37:03;;;;;;;10.77;4.90;;;;;;;12.91;44.37;103196.16;5044342;28;20057;-63
2022/01/24 00:39:28;;;;;;;12.80;5.50;;;;;;;12.92;44.55;103194.34;5043273;28;20025;-63
2022/01/24 00:42:19;;;;;;;11.10;5.22;;;;;;;12.89;44.39;103194.50;5045666;28;20091;-63
2022/01/24 00:45:04;;;;;;;11.60;5.50;;;;;;;12.84;43.47;103200.16;5042079;28;20032;-62
2022/01/24 00:47:46;;;;;;;13.88;6.03;;;;;;;12.80;44.08;103201.28;5063434;28;20032;-63
2022/01/24 00:53:12;;;;;;;10.90;5.47;;;;;;;12.77;44.47;103198.75;5061143;28;20044;-63
2022/01/24 00:55:38;;;;;;;13.32;5.63;;;;;;;12.74;43.35;103206.97;5039155;28;20040;-63
2022/01/24 00:58:03;;;;;;;10.02;5.10;;;;;;;12.73;43.07;103199.88;5044280;28;20031;-63
2022/01/24 01:00:28;;;;;;;12.75;5.80;;;;;;;12.70;43.30;103200.06;5061079;28;20581;-62
2022/01/24 01:02:54;;;;;;;12.68;5.57;;;;;;;12.67;43.32;103203.75;5060676;28;20365;-63
2022/01/24 01:05:35;;;;;;;14.15;6.80;;;;;;;12.62;44.38;103196.88;5062303;28;20032;-63
2022/01/24 01:19:05;;;;;;;17.75;7.70;;;;;;;12.47;44.23;103197.75;5044938;28;20040;-63
2022/01/24 01:21:31;;;;;;;14.63;7.05;;;;;;;12.44;44.32;103192.53;5062773;28;20078;-63
2022/01/24 01:23:58;;;;;;;15.68;6.95;;;;;;;12.40;43.14;103180.19;5060836;28;20024;-62
2022/01/24 01:29:02;;;;;;;;;;;;;;;12.40;44.18;103188.25;5061873;28;20033;-63
2022/01/24 01:31:47;;;;;;;15.57;6.57;;;;;;;12.38;43.74;103187.50;5044436;28;20281;-63
2022/01/24 01:39:35;;;;;;;15.48;6.47;;;;;;;12.36;43.32;103189.41;5066656;28;20048;-63
2022/01/24 01:55:38;;;;;;;;;;;;;;;12.27;43.80;103180.88;5066667;28;20398;-63
2022/01/24 01:58:05;;;;;;;11.93;5.35;;;;;;;12.22;43.53;103180.25;5068408;28;19995;-63
2022/01/24 02:00:30;;;;;;;11.25;5.53;;;;;;;12.19;43.08;103177.75;5058377;28;20021;-63
2022/01/24 02:02:56;;;;;;;12.90;6.07;;;;;;;12.19;44.37;103171.50;5058155;28;20036;-62
2022/01/24 02:05:22;;;;;;;15.25;6.65;;;;;;;12.15;44.19;103164.53;5076348;28;20031;-63
2022/01/24 02:07:49;;;;;;;13.43;5.88;;;;;;;12.17;44.34;103185.00;5076404;28;20474;-63
2022/01/24 02:10:15;;;;;;;15.50;6.57;;;;;;;12.14;43.68;103182.47;5075867;28;20099;-63
2022/01/24 02:12:41;;;;;;;13.23;6.32;;;;;;;12.11;44.29;103182.66;5076052;28;20040;-63
2022/01/24 02:15:07;;;;;;;13.18;6.82;;;;;;;12.06;43.73;103176.63;5058260;28;20063;-63
2022/01/24 02:17:50;;;;;;;15.68;6.45;;;;;;;12.09;43.94;103186.34;5041381;28;20553;-63
2022/01/24 02:20:38;;;;;;;13.65;6.18;;;;;;;12.03;43.26;103174.09;5060646;28;20102;-62
2022/01/24 02:25:48;;;;;;;13.77;6.60;;;;;;;12.05;44.00;103184.78;5075518;28;20482;-64
2022/01/24 02:28:16;;;;;;;16.67;6.60;;;;;;;12.03;44.23;103182.16;5075473;28;20029;-62
2022/01/24 02:31:22;;;;;;;15.73;7.60;;;;;;;12.05;44.20;103180.28;5075772;28;20506;-63
2022/01/24 02:33:30;;;;;;;10.02;5.55;;;;;;;12.07;44.51;103183.75;5075225;28;20067;-63
2022/01/24 02:35:56;;;;;;;12.80;6.55;;;;;;;12.07;44.61;103178.38;5075374;28;20099;-62
2022/01/24 02:49:30;;;;;;;13.77;7.20;;;;;;;12.14;45.00;103169.03;5060372;28;20169;-63
2022/01/24 02:52:10;;;;;;;13.23;6.68;;;;;;;12.16;44.49;103180.59;5057389;28;20020;-62
2022/01/24 02:54:36;;;;;;;12.63;6.18;;;;;;;12.14;44.42;103171.72;5040798;28;20094;-63
2022/01/24 02:57:03;;;;;;;12.73;6.22;;;;;;;12.14;44.50;103174.41;5075187;28;20016;-63
2022/01/24 02:59:29;;;;;;;16.27;6.15;;;;;;;12.11;44.71;103169.22;5075422;28;20028;-62
2022/01/24 03:01:55;;;;;;;13.40;5.55;;;;;;;12.10;43.94;103170.16;5075014;28;20493;-63
2022/01/24 03:04:20;;;;;;;17.60;7.57;;;;;;;12.06;44.65;103165.88;5075263;28;20153;-62
2022/01/24 03:06:46;;;;;;;17.65;6.35;;;;;;;12.03;44.17;103170.56;5057078;28;20363;-62
2022/01/24 03:09:12;;;;;;;15.85;6.45;;;;;;;11.99;44.35;103163.63;5057146;28;20020;-63
2022/01/24 03:12:04;;;;;;;15.55;5.85;;;;;;;11.95;43.98;103172.81;5074788;28;20118;-63
2022/01/24 03:14:27;;;;;;;12.57;5.57;;;;;;;11.90;45.10;103170.34;5074448;28;20032;-63
2022/01/24 03:16:54;;;;;;;17.63;6.28;;;;;;;11.81;44.07;103168.13;5075092;28;20016;-63
2022/01/24 03:19:19;;;;;;;11.38;5.32;;;;;;;11.79;44.75;103167.34;5056747;28;20098;-62
2022/01/24 03:21:45;;;;;;;14.25;6.75;;;;;;;11.74;44.31;103168.53;5074815;28;20021;-63
2022/01/24 03:24:11;;;;;;;15.65;6.85;;;;;;;11.69;44.47;103160.72;5057148;28;20099;-63
2022/01/24 03:26:36;;;;;;;13.65;6.40;;;;;;;11.62;44.16;103153.88;5053432;28;20049;-62
2022/01/24 03:29:03;;;;;;;11.27;6.13;;;;;;;11.57;44.32;103155.94;5055071;28;20382;-63
2022/01/24 03:31:28;;;;;;;14.90;7.22;;;;;;;11.52;43.80;103152.63;5054656;28;20021;-63
2022/01/24 03:33:53;;;;;;;11.68;6.35;;;;;;;11.45;44.51;103151.19;5053338;28;20111;-63
2022/01/24 03:36:19;;;;;;;17.85;5.53;;;;;;;11.38;44.93;103149.78;5054417;28;20033;-63
2022/01/24 03:38:44;;;;;;;12.85;5.82;;;;;;;11.35;44.64;103150.81;5053254;28;20459;-63
2022/01/24 03:41:10;;;;;;;13.40;6.30;;;;;;;11.32;44.82;103150.06;5054708;28;20091;-63
2022/01/24 03:43:35;;;;;;;13.38;6.13;;;;;;;11.27;44.19;103149.44;5054477;28;20082;-63
2022/01/24 03:48:50;;;;;;;14.73;6.00;;;;;;;11.09;44.19;103138.69;5053472;28;20052;-63
2022/01/24 03:51:16;;;;;;;13.73;5.63;;;;;;;11.07;44.73;103143.25;5054517;28;20043;-62
2022/01/24 03:53:43;;;;;;;11.85;5.20;;;;;;;11.01;44.42;103151.59;5054276;28;20478;-62
2022/01/24 03:56:09;;;;;;;12.23;5.00;;;;;;;10.92;44.53;103149.34;5054190;28;20025;-63
2022/01/24 03:58:34;;;;;;;14.30;5.80;;;;;;;10.88;44.50;103138.88;5053238;28;20027;-62
2022/01/24 04:01:00;;;;;;;14.13;5.63;;;;;;;10.77;44.72;103131.34;5052910;28;20067;-62
2022/01/24 04:03:26;;;;;;;13.52;5.50;;;;;;;10.80;44.75;103141.94;5053604;28;20157;-62
2022/01/24 04:05:51;;;;;;;15.18;6.07;;;;;;;10.73;44.76;103150.31;5052671;28;20175;-63
2022/01/24 04:08:17;;;;;;;15.90;5.65;;;;;;;10.72;44.68;103152.13;5053815;28;20032;-62
2022/01/24 04:10:46;;;;;;;15.20;6.43;;;;;;;10.70;44.85;103151.34;5053917;28;20367;-63
2022/01/24 04:13:25;;;;;;;12.63;5.35;;;;;;;10.69;44.94;103157.63;5052433;28;20482;-62
2022/01/24 04:16:11;;;;;;;12.15;4.95;;;;;;;10.67;44.22;103151.47;5052699;28;20025;-62
2022/01/24 04:21:23;;;;;;;12.13;4.65;;;;;;;10.67;44.53;103153.28;5053624;28;20391;-62
2022/01/24 04:23:57;;;;;;;12.10;5.07;;;;;;;10.66;44.86;103147.09;5052502;28;20029;-62
2022/01/24 04:26:22;;;;;;;11.38;5.05;;;;;;;10.66;44.79;103149.75;5052434;28;20052;-63
2022/01/24 04:28:47;;;;;;;11.63;5.55;;;;;;;10.66;44.82;103149.75;5053721;28;20029;-62
2022/01/24 04:31:13;;;;;;;11.25;5.30;;;;;;;10.66;44.88;103147.09;5053892;28;20489;-63
2022/01/24 04:33:38;;;;;;;12.95;5.75;;;;;;;10.69;45.42;103154.94;5052193;28;20158;-62
2022/01/24 04:36:04;;;;;;;13.23;5.90;;;;;;;10.73;45.10;103151.19;5053409;28;20143;-62
2022/01/24 04:38:29;;;;;;;15.65;5.70;;;;;;;10.74;45.65;103158.31;5035716;28;20028;-62
2022/01/24 04:40:59;;;;;;;14.63;5.82;;;;;;;10.78;45.08;103154.50;5035874;28;20033;-62
2022/01/24 04:51:14;;;;;;;13.93;5.88;;;;;;;10.87;45.07;103155.88;5053155;28;20125;-62
2022/01/24 04:56:04;;;;;;;14.77;5.85;;;;;;;10.95;45.47;103151.91;5053220;28;20191;-63
2022/01/24 04:58:30;;;;;;;16.42;6.55;;;;;;;10.97;45.90;103158.03;5053267;28;20027;-62
2022/01/24 05:00:55;;;;;;;12.57;5.75;;;;;;;11.00;45.27;103162.38;5051943;28;20122;-62
2022/01/24 05:03:21;;;;;;;17.05;7.25;;;;;;;11.06;45.36;103165.66;5051943;28;20394;-62
2022/01/24 05:05:47;;;;;;;20.10;6.85;;;;;;;11.10;45.43;103161.00;5053160;28;20064;-62
2022/01/24 05:08:14;;;;;;;15.85;6.50;;;;;;;11.13;45.27;103165.34;5053282;28;20024;-62
2022/01/24 05:10:52;;;;;;;13.55;6.28;;;;;;;11.14;45.46;103151.00;5055077;28;20017;-63
2022/01/24 05:21:52;;;;;;;17.13;6.63;;;;;;;11.39;45.35;103171.16;5057068;28;20548;-63
2022/01/24 05:24:16;;;;;;;20.02;7.68;;;;;;;11.43;46.07;103169.19;5055831;28;20047;-63
2022/01/24 05:26:42;;;;;;;20.25;7.53;;;;;;;11.48;45.75;103162.66;5038868;28;20490;-62
2022/01/24 05:29:07;;;;;;;18.15;8.57;;;;;;;11.52;45.48;103166.94;5057101;28;20098;-63
2022/01/24 05:31:32;;;;;;;18.63;8.93;;;;;;;11.55;45.42;103169.47;5056790;28;20021;-63
2022/01/24 05:33:58;;;;;;;14.27;6.38;;;;;;;11.60;45.44;103171.91;5056903;28;20021;-62
2022/01/24 05:36:23;;;;;;;18.05;8.13;;;;;;;11.62;45.64;103162.81;5055444;28;20048;-63
2022/01/24 05:38:48;;;;;;;22.38;8.32;;;;;;;11.66;45.34;103171.59;5056694;28;20060;-63
2022/01/24 05:41:14;;;;;;;15.60;7.35;;;;;;;11.69;45.66;103160.72;5056353;28;20033;-63
2022/01/24 05:43:40;;;;;;;21.58;8.35;;;;;;;11.72;45.79;103160.56;5056501;28;20029;-63
2022/01/24 05:46:06;;;;;;;20.75;8.30;;;;;;;11.76;45.52;103164.81;5038854;28;20162;-62
2022/01/24 05:48:31;;;;;;;19.20;8.80;;;;;;;11.80;45.96;103177.16;5056509;28;20052;-63
2022/01/24 05:50:56;;;;;;;17.23;8.75;;;;;;;11.84;45.43;103176.03;5056314;28;20029;-63
2022/01/24 05:53:22;;;;;;;21.98;7.80;;;;;;;11.88;45.76;103177.63;5056432;28;20028;-62
2022/01/24 05:55:47;;;;;;;18.45;7.85;;;;;;;11.91;45.74;103177.47;5056655;28;20067;-62
2022/01/24 05:58:12;;;;;;;23.15;7.95;;;;;;;11.94;45.67;103177.31;5056291;28;20027;-63
2022/01/24 06:00:38;;;;;;;18.05;8.93;;;;;;;11.97;46.14;103181.63;5056376;28;20021;-63
2022/01/24 06:03:03;;;;;;;15.40;7.65;;;;;;;12.00;45.66;103182.34;5056244;28;20368;-62
2022/01/24 06:05:29;;;;;;;17.08;7.72;;;;;;;12.01;45.94;103178.69;5056071;28;20439;-63
2022/01/24 06:07:55;;;;;;;22.67;9.10;;;;;;;12.02;45.42;103180.44;5056189;28;20024;-62
2022/01/24 06:10:20;;;;;;;20.73;9.23;;;;;;;12.08;45.23;103180.13;5056210;28;20028;-63
2022/01/24 06:12:46;;;;;;;19.17;8.13;;;;;;;12.08;45.22;103182.81;5055380;28;20372;-63
2022/01/24 06:15:11;;;;;;;18.25;6.95;;;;;;;12.12;45.94;103180.81;5056063;28;20025;-63
2022/01/24 06:17:37;;;;;;;19.92;8.60;;;;;;;12.09;45.77;103168.41;5056235;28;20017;-62
2022/01/24 06:20:03;;;;;;;16.50;8.25;;;;;;;12.15;45.94;103176.16;5056485;28;20387;-63
2022/01/24 06:22:29;;;;;;;17.13;8.38;;;;;;;12.17;45.84;103178.78;5036937;28;20174;-63
2022/01/24 06:24:54;;;;;;;19.92;8.27;;;;;;;12.17;45.83;103185.00;5055822;28;20484;-63
2022/01/24 06:27:19;;;;;;;19.40;7.85;;;;;;;12.21;45.01;103191.94;5037635;28;20644;-63
2022/01/24 06:29:45;;;;;;;15.45;7.80;;;;;;;12.22;45.25;103184.75;5056040;28;20036;-63
2022/01/24 06:32:10;;;;;;;18.67;8.20;;;;;;;12.19;45.47;103177.75;5054736;28;20108;-62
2022/01/24 06:34:37;;;;;;;19.33;8.35;;;;;;;12.23;45.03;103190.03;5055566;28;20417;-62
2022/01/24 06:37:02;;;;;;;24.02;8.00;;;;;;;12.26;45.81;103181.81;5055809;28;20029;-63
2022/01/24 06:39:28;;;;;;;18.08;7.22;;;;;;;12.27;45.16;103185.38;5054480;28;20589;-62
2022/01/24 06:42:08;;;;;;;17.40;7.78;;;;;;;12.28;45.12;103182.59;5055781;28;20512;-62
2022/01/24 06:44:34;;;;;;;18.77;7.75;;;;;;;12.30;45.64;103173.59;5054436;28;20024;-63
2022/01/24 06:46:59;;;;;;;15.48;7.60;;;;;;;12.25;45.66;103161.25;5055397;28;20032;-62
2022/01/24 06:49:24;;;;;;;16.02;7.30;;;;;;;12.28;44.88;103179.06;5055417;28;20566;-63
2022/01/24 06:51:50;;;;;;;22.88;9.05;;;;;;;12.31;45.49;103180.72;5055299;28;20360;-62
2022/01/24 06:54:15;;;;;;;23.83;9.00;;;;;;;12.27;44.73;103178.19;5055390;28;20398;-62
2022/01/24 06:56:40;;;;;;;18.30;8.00;;;;;;;12.30;45.10;103174.47;5055193;28;20047;-62
2022/01/24 06:59:07;;;;;;;20.15;7.60;;;;;;;12.28;44.93;103176.38;5055274;28;20052;-63
2022/01/24 07:01:33;;;;;;;20.50;8.23;;;;;;;12.27;44.85;103172.81;5053966;28;20025;-63
2022/01/24 07:03:58;;;;;;;21.00;9.18;;;;;;;12.25;45.43;103177.38;5055088;28;20040;-62
2022/01/24 07:06:23;;;;;;;22.33;8.50;;;;;;;12.24;45.21;103172.97;5037179;28;20028;-62
2022/01/24 07:08:49;;;;;;;20.67;7.75;;;;;;;12.23;45.23;103179.28;5054885;28;20021;-62
2022/01/24 07:11:14;;;;;;;15.48;7.28;;;;;;;12.22;44.82;103182.09;5054707;28;20108;-62
2022/01/24 07:13:40;;;;;;;20.85;8.05;;;;;;;12.18;45.72;103173.31;5054826;28;20029;-62
2022/01/24 07:16:06;;;;;;;20.15;8.15;;;;;;;12.20;45.63;103183.94;5054899;28;20035;-62
2022/01/24 07:21:03;;;;;;;16.35;7.63;;;;;;;12.17;45.86;103185.00;5054937;28;20382;-62
2022/01/24 07:23:28;;;;;;;18.98;8.43;;;;;;;12.17;45.98;103189.53;5054301;28;20033;-63
2022/01/24 07:25:54;;;;;;;17.65;7.55;;;;;;;12.15;45.60;103186.03;5056880;28;20911;-62
2022/01/24 07:28:20;;;;;;;19.23;7.30;;;;;;;12.14;45.31;103193.22;5074337;28;20103;-62
2022/01/24 07:30:45;;;;;;;19.08;7.82;;;;;;;12.15;45.85;103208.41;5074431;28;20497;-62
2022/01/24 07:33:11;;;;;;;17.30;7.78;;;;;;;12.14;45.30;103206.66;5074166;28;20486;-63
2022/01/24 07:35:37;;;;;;;19.58;6.88;;;;;;;12.13;45.55;103196.88;5074318;28;20032;-63
2022/01/24 07:38:05;;;;;;;18.20;7.65;;;;;;;12.12;45.08;103203.19;5074150;28;20016;-62
2022/01/24 07:40:31;;;;;;;16.13;7.50;;;;;;;12.13;45.53;103204.94;5074539;28;20020;-62
2022/01/24 07:43:09;;;;;;;17.45;7.05;;;;;;;12.12;45.52;103192.44;5074192;28;20107;-62
2022/01/24 07:45:35;;;;;;;17.08;7.60;;;;;;;12.12;45.71;103203.19;5074303;28;20081;-62
2022/01/24 07:48:01;;;;;;;16.98;7.20;;;;;;;12.13;45.34;103207.63;5074144;28;20525;-63
2022/01/24 07:50:27;;;;;;;17.55;6.57;;;;;;;12.11;46.00;103190.72;5074333;28;20020;-63
2022/01/24 07:52:53;;;;;;;20.73;8.93;;;;;;;12.09;45.79;103187.22;5074171;28;20013;-63
2022/01/24 07:55:19;;;;;;;19.05;7.80;;;;;;;12.08;44.78;103193.56;5039804;28;20027;-63
2022/01/24 07:57:44;;;;;;;16.40;6.93;;;;;;;12.13;45.46;103188.81;5073782;28;20538;-63
2022/01/24 08:00:11;;;;;;;17.40;7.10;;;;;;;12.09;46.13;103180.97;5073738;28;20039;-63
2022/01/24 08:02:37;;;;;;;17.77;8.45;;;;;;;12.16;45.25;103188.66;5073679;28;20028;-63
2022/01/24 08:05:04;;;;;;;17.38;8.25;;;;;;;12.12;45.70;103184.38;5056124;28;20517;-63
2022/01/24 08:07:29;;;;;;;17.90;7.65;;;;;;;12.15;45.78;103184.22;5055989;28;20115;-63
2022/01/24 08:09:54;;;;;;;18.10;7.50;;;;;;;12.19;45.32;103193.88;5073765;28;20055;-63
2022/01/24 08:12:20;;;;;;;20.40;7.88;;;;;;;12.20;45.81;103184.81;5073525;28;20067;-63
2022/01/24 08:14:45;;;;;;;22.98;8.45;;;;;;;12.24;46.01;103202.53;5073732;28;20043;-63
2022/01/24 08:17:10;;;;;;;18.58;7.95;;;;;;;12.26;45.73;103191.69;5073649;28;20066;-62
2022/01/24 08:19:36;;;;;;;21.67;8.38;;;;;;;12.30;45.37;103204.03;5055855;28;20032;-63
2022/01/24 08:22:01;;;;;;;19.40;8.68;;;;;;;12.33;46.24;103197.63;5073484;28;20112;-63
2022/01/24 08:24:27;;;;;;;22.05;8.98;;;;;;;12.35;45.09;103203.78;5055680;28;20063;-62
2022/01/24 08:26:53;;;;;;;18.13;7.63;;;;;;;12.38;45.08;103208.97;5073362;28;20041;-64
2022/01/24 08:29:18;;;;;;;20.02;8.65;;;;;;;12.38;45.02;103206.28;5073520;28;20475;-63
2022/01/24 08:31:43;;;;;;;17.58;8.10;;;;;;;12.43;45.33;103220.34;5073367;28;20067;-63
2022/01/24 08:34:09;;;;;;;19.25;7.90;;;;;;;12.45;45.61;103221.16;5073504;28;20040;-63
2022/01/24 08:36:34;;;;;;;18.98;7.32;;;;;;;12.44;46.04;103216.72;5073370;28;20056;-63
2022/01/24 08:39:06;;;;;;;21.17;9.60;;;;;;;12.49;45.55;103223.59;5073677;28;20040;-62
2022/01/24 08:41:56;;;;;;;19.20;8.13;;;;;;;12.51;45.99;103219.00;5073562;28;20485;-63
2022/01/24 08:45:44;;;;;;;17.13;7.63;;;;;;;12.57;45.29;103223.16;5073430;28;20036;-63
2022/01/24 08:47:19;;;;;;;17.70;8.18;;;;;;;12.62;45.66;103218.41;5073009;28;20032;-63
2022/01/24 08:49:44;;;;;;;16.45;8.38;;;;;;;12.63;46.05;103210.28;5073291;28;20070;-63
2022/01/24 08:52:10;;;;;;;20.25;9.10;;;;;;;12.69;45.29;103219.81;5073210;28;20108;-63
2022/01/24 08:54:35;;;;;;;21.58;8.13;;;;;;;12.70;44.96;103211.66;5073164;28;20040;-63
2022/01/24 08:57:02;;;;;;;20.20;8.43;;;;;;;12.74;45.20;103217.75;5055461;28;20506;-63
2022/01/24 08:59:27;;;;;;;19.45;8.13;;;;;;;12.79;45.05;103221.03;5055602;28;20036;-62
2022/01/24 09:01:52;;;;;;;23.38;9.65;;;;;;;12.86;45.74;103217.06;5021969;28;20028;-63
2022/01/24 09:04:18;;;;;;;22.90;9.00;;;;;;;12.92;44.57;103214.03;5073303;28;20462;-63
2022/01/24 09:06:43;;;;;;;21.63;8.85;;;;;;;12.96;45.21;103212.91;5073144;28;20055;-63
2022/01/24 09:09:09;;;;;;;29.60;10.00;;;;;;;13.00;45.54;103209.09;5073298;28;20044;-62
2022/01/24 09:11:36;;;;;;;20.55;8.85;;;;;;;13.04;45.14;103216.03;5072901;28;20078;-63
2022/01/24 09:14:03;;;;;;;24.75;10.00;;;;;;;13.09;44.81;103211.28;5072985;28;20031;-62
2022/01/24 09:16:28;;;;;;;21.95;9.40;;;;;;;13.15;44.70;103210.94;5073240;28;20035;-63
2022/01/24 09:18:54;;;;;;;25.02;9.30;;;;;;;13.20;44.50;103210.69;5072922;28;20482;-63
2022/01/24 09:21:19;;;;;;;19.05;9.60;;;;;;;13.25;44.95;103204.09;5054960;28;20435;-63
2022/01/24 09:23:45;;;;;;;18.48;8.27;;;;;;;13.30;45.03;103201.13;5073115;28;20035;-63
2022/01/24 09:26:10;;;;;;;23.25;9.30;;;;;;;13.37;44.97;103199.84;5072697;28;20498;-63
2022/01/24 09:28:36;;;;;;;20.20;9.35;;;;;;;13.46;44.48;103195.69;5073250;28;20059;-63
2022/01/24 09:31:02;;;;;;;22.10;9.70;;;;;;;13.56;44.81;103196.91;5072938;28;20031;-63
2022/01/24 09:33:27;;;;;;;23.05;8.95;;;;;;;13.62;44.70;103208.22;5073017;28;20411;-63
2022/01/24 09:35:58;;;;;;;19.95;9.63;;;;;;;13.70;44.82;103210.44;5072849;28;20028;-63
2022/01/24 09:38:24;;;;;;;25.38;10.10;;;;;;;13.78;44.49;103205.47;5055918;28;20374;-62
2022/01/24 09:40:49;;;;;;;26.63;11.13;;;;;;;13.83;43.83;103200.66;5072712;28;20028;-62
2022/01/24 09:43:15;;;;;;;21.48;10.35;;;;;;;13.96;44.45;103212.41;5055027;28;20036;-63
2022/01/24 09:45:40;;;;;;;21.52;9.77;;;;;;;14.10;43.75;103206.22;5054779;28;20120;-62
2022/01/24 09:48:05;;;;;;;25.08;10.75;;;;;;;14.79;42.57;103203.66;5073049;28;20063;-63
2022/01/24 09:50:31;;;;;;;25.25;10.73;;;;;;;15.00;43.31;103207.66;5072753;28;20538;-63
2022/01/24 09:52:56;;;;;;;26.77;11.05;;;;;;;15.11;42.01;103200.63;5054754;28;20081;-63
2022/01/24 09:55:23;;;;;;;26.02;11.15;;;;;;;15.54;42.75;103203.22;5055029;28;20509;-63
2022/01/24 09:57:50;;;;;;;26.13;11.85;;;;;;;15.97;41.26;103201.16;5074331;28;20385;-63
2022/01/24 10:00:18;;;;;;;24.42;10.13;;;;;;;16.34;41.79;103197.59;5076225;28;20021;-63
2022/01/24 10:02:46;;;;;;;22.92;10.10;;;;;;;16.75;40.66;103190.09;5076495;28;20542;-63
2022/01/24 10:05:22;;;;;;;25.20;10.32;;;;;;;17.17;40.79;103187.94;5076745;28;20032;-63
2022/01/24 10:07:54;;;;;;;21.15;10.70;;;;;;;17.58;40.59;103191.16;5076588;28;20086;-63
2022/01/24 10:10:30;;;;;;;20.70;9.77;;;;;;;17.86;39.81;103185.34;5076186;28;20020;-63
2022/01/24 10:18:08;;;;;;;26.95;11.00;;;;;;;18.67;39.89;103187.94;5061224;28;20035;-63
2022/01/24 10:20:37;;;;;;;22.85;10.43;;;;;;;18.87;38.66;103184.44;5076835;28;20097;-63
2022/01/24 10:23:16;;;;;;;19.50;9.40;;;;;;;19.03;39.02;103190.38;5076267;28;20470;-63
2022/01/24 10:26:03;;;;;;;21.02;11.60;;;;;;;19.22;38.81;103189.69;5058592;28;20037;-63
2022/01/24 10:28:39;;;;;;;26.60;11.27;;;;;;;19.38;38.58;103181.13;5076187;28;20024;-63
2022/01/24 10:31:16;;;;;;;23.30;11.05;;;;;;;19.57;38.25;103176.75;5076379;28;20021;-63
2022/01/24 10:34:13;;;;;;;26.20;10.07;;;;;;;19.81;38.04;103184.69;5076243;28;20016;-63
2022/01/24 10:36:50;;;;;;;25.63;12.00;;;;;;;19.92;37.53;103173.72;5057004;28;20039;-63
2022/01/24 10:40:19;;;;;;;21.45;11.45;;;;;;;20.12;37.57;103175.59;5076125;28;20032;-63
2022/01/24 10:44:58;;;;;;;21.92;11.02;;;;;;;20.46;36.73;103172.66;5076031;28;20025;-63
2022/01/24 10:47:29;;;;;;;23.35;11.15;;;;;;;20.57;37.28;103175.28;5075632;28;20056;-63
2022/01/24 10:49:55;;;;;;;23.70;11.38;;;;;;;20.63;36.86;103169.28;5058061;28;20024;-64
2022/01/24 10:52:26;;;;;;;19.95;11.23;;;;;;;20.65;36.42;103172.72;5075995;28;20028;-63
2022/01/24 10:55:09;;;;;;;21.42;10.90;;;;;;;20.68;36.70;103167.00;5075833;28;20025;-63
2022/01/24 10:57:35;;;;;;;21.13;11.30;;;;;;;20.73;36.87;103164.72;5076121;28;20024;-63
2022/01/24 11:00:23;;;;;;;21.40;11.15;;;;;;;20.80;36.29;103158.56;5075505;28;20052;-63
2022/01/24 11:02:50;;;;;;;23.42;11.60;;;;;;;20.92;36.38;103153.88;5074816;28;20098;-63
2022/01/24 11:05:17;;;;;;;22.30;10.48;;;;;;;21.03;35.34;103153.75;5057481;28;20074;-62
2022/01/24 11:08:11;;;;;;;22.02;11.95;;;;;;;21.11;35.60;103151.22;5075067;28;20398;-63
2022/01/24 11:10:43;;;;;;;24.75;11.90;;;;;;;21.15;36.09;103155.41;5075058;28;20114;-63
2022/01/24 11:13:09;;;;;;;23.17;12.00;;;;;;;21.08;35.40;103147.94;5075091;28;20021;-64
2022/01/24 11:15:39;;;;;;;22.42;10.93;;;;;;;20.99;36.00;103154.19;5075262;28;20029;-63
2022/01/24 11:18:05;;;;;;;22.92;11.55;;;;;;;21.05;35.61;103149.03;5075488;28;20470;-63
2022/01/24 11:20:34;;;;;;;19.48;10.93;;;;;;;21.11;35.41;103145.78;5075578;28;20032;-63
2022/01/24 11:23:05;;;;;;;20.65;10.70;;;;;;;21.19;35.37;103142.38;5057032;28;20435;-63
2022/01/24 11:25:42;;;;;;;25.70;11.85;;;;;;;21.27;35.25;103143.34;5075059;28;20538;-64
2022/01/24 11:28:08;;;;;;;25.05;11.40;;;;;;;21.30;35.23;103137.59;5075074;28;20489;-63
2022/01/24 11:30:42;;;;;;;21.92;12.20;;;;;;;21.32;34.67;103124.72;5074832;28;20017;-63
2022/01/24 11:33:13;;;;;;;23.83;10.20;;;;;;;21.41;35.16;103133.91;5041080;28;20020;-63
2022/01/24 11:35:50;;;;;;;24.27;10.98;;;;;;;21.47;34.16;103133.31;5074356;28;20363;-62
2022/01/24 11:38:47;;;;;;;24.25;11.70;;;;;;;21.53;33.97;103126.41;5074623;28;20359;-64
2022/01/24 11:41:22;;;;;;;23.48;11.40;;;;;;;21.58;34.02;103124.13;5056603;28;20035;-63
2022/01/24 11:43:50;;;;;;;21.77;11.32;;;;;;;21.62;34.69;103123.69;5074133;28;20058;-64
2022/01/24 11:46:37;;;;;;;25.17;12.52;;;;;;;21.64;34.11;103128.97;5074308;28;20047;-63
2022/01/24 11:49:34;;;;;;;19.95;11.10;;;;;;;21.65;34.48;103128.00;5074574;28;20466;-64
2022/01/24 11:52:04;;;;;;;25.70;11.60;;;;;;;21.61;34.82;103129.31;5054557;28;20036;-64
2022/01/24 11:54:43;;;;;;;20.10;10.57;;;;;;;21.57;34.17;103127.84;5074328;28;20051;-64
2022/01/24 11:57:15;;;;;;;20.83;11.82;;;;;;;21.59;34.02;103126.69;5074320;28;20386;-64
2022/01/24 11:59:40;;;;;;;24.08;11.13;;;;;;;21.62;34.37;103120.97;5074138;28;20047;-65
2022/01/24 12:02:08;;;;;;;25.67;11.40;;;;;;;21.69;34.67;103126.72;5055839;28;20025;-64
2022/01/24 12:04:58;;;;;;;24.08;12.32;;;;;;;21.74;34.19;103118.94;5073966;28;20035;-64
2022/01/24 12:07:59;;;;;;;26.23;12.13;;;;;;;21.73;34.22;103109.03;5056119;28;20035;-64
2022/01/24 12:10:25;;;;;;;24.83;12.30;;;;;;;21.68;33.74;103108.59;5073798;28;20082;-64
2022/01/24 12:13:00;;;;;;;24.00;10.85;;;;;;;21.30;34.87;103115.78;5073883;28;20020;-64
2022/01/24 12:15:38;;;;;;;21.13;10.95;;;;;;;21.23;34.80;103114.66;5073919;28;20107;-64
2022/01/24 12:18:05;;;;;;;21.48;11.00;;;;;;;21.08;34.41;103113.34;5073942;28;20498;-64
2022/01/24 12:20:31;;;;;;;22.10;11.40;;;;;;;21.08;34.15;103110.63;5074154;28;20032;-64
2022/01/24 12:23:19;;;;;;;25.25;10.57;;;;;;;21.08;33.98;103104.34;5073879;28;20490;-64
2022/01/24 12:25:49;;;;;;;29.90;12.98;;;;;;;21.09;34.07;103106.91;5062857;28;20043;-64
2022/01/24 12:28:16;;;;;;;24.83;12.65;;;;;;;21.09;34.35;103101.44;5074148;28;20414;-64
2022/01/24 12:31:25;;;;;;;23.70;11.32;;;;;;;21.11;34.18;103099.44;5073678;28;20466;-64
2022/01/24 12:33:53;;;;;;;23.75;11.20;;;;;;;21.11;34.24;103091.25;4994097;28;20121;-64
2022/01/24 12:36:39;;;;;;;27.75;12.80;;;;;;;21.10;33.82;103097.72;5073785;28;20028;-70
2022/01/24 12:39:12;;;;;;;22.25;11.82;;;;;;;21.11;34.60;103088.53;5062217;28;20025;-64
2022/01/24 12:41:44;;;;;;;23.75;10.80;;;;;;;21.06;33.60;103079.88;5053949;28;20102;-64
2022/01/24 12:46:17;;;;;;;25.70;10.43;;;;;;;21.01;34.24;103076.75;5054103;28;20031;-63
2022/01/24 12:46:54;;;;;;;20.23;9.82;;;;;;;20.92;34.32;103074.84;5053293;28;20031;-64
2022/01/24 12:49:20;;;;;;;17.52;9.68;;;;;;;20.84;34.70;103071.97;5067586;28;20107;-64
2022/01/24 12:51:45;;;;;;;22.95;10.05;;;;;;;20.82;34.36;103080.31;5074034;28;20029;-64
2022/01/24 12:54:11;;;;;;;20.10;11.05;;;;;;;20.77;34.19;103081.75;5073656;28;20016;-64
2022/01/24 12:56:36;;;;;;;20.17;10.43;;;;;;;20.70;33.97;103086.00;5056079;28;20074;-64
2022/01/24 12:59:02;;;;;;;23.67;10.30;;;;;;;20.63;34.64;103082.97;5056100;28;20060;-64
2022/01/24 13:01:29;;;;;;;22.83;9.98;;;;;;;20.58;34.45;103066.19;5055694;28;20039;-64
2022/01/24 13:04:06;;;;;;;19.40;10.00;;;;;;;20.54;34.22;103070.22;5059279;28;20074;-64